Time;durP1;ratioP1;P1;durP2;ratioP2;P2;SDS_P1;SDS_P2;PMS_P1;PMS_P2;Temp;Humidity;BMP_temperature;BMP_pressure;BME280_temperature;BME280_humidity;BME280_pressure;Samples;Min_cycle;Max_cycle;Signal;HPM_P1;HPM_P2
2021/04/24 00:00:23;;;;;;;17.70;10.02;;;6.90;92.20;;;;;;4983310;28;20042;-37
2021/04/24 00:02:49;;;;;;;13.57;8.65;;;6.90;92.20;;;;;;4984521;28;20339;-38
2021/04/24 00:05:24;;;;;;;16.30;9.20;;;6.80;92.20;;;;;;4984171;28;20080;-38
2021/04/24 00:07:55;;;;;;;19.50;9.50;;;6.80;92.30;;;;;;4985518;28;20128;-38
2021/04/24 00:10:21;;;;;;;15.40;9.30;;;6.80;92.40;;;;;;4980190;28;20030;-34
2021/04/24 00:12:47;;;;;;;13.25;9.18;;;6.70;92.70;;;;;;4986751;28;20038;-36
2021/04/24 00:15:15;;;;;;;18.92;9.82;;;6.70;92.50;;;;;;4969363;28;20041;-37
2021/04/24 00:17:41;;;;;;;14.45;9.32;;;6.70;92.60;;;;;;4970519;28;20068;-35
2021/04/24 00:20:10;;;;;;;13.15;8.77;;;6.60;92.70;;;;;;4977399;28;20482;-38
2021/04/24 00:22:38;;;;;;;14.63;9.07;;;6.60;92.70;;;;;;4987249;28;20022;-38
2021/04/24 00:25:05;;;;;;;14.35;8.70;;;6.60;92.80;;;;;;4977067;28;20037;-38
2021/04/24 00:27:31;;;;;;;14.98;9.90;;;6.60;92.80;;;;;;4987609;28;20040;-39
2021/04/24 00:29:56;;;;;;;16.98;9.57;;;6.50;92.90;;;;;;4975533;28;20122;-36
2021/04/24 00:32:22;;;;;;;12.60;8.57;;;6.50;92.90;;;;;;4988332;28;20027;-37
2021/04/24 00:34:50;;;;;;;12.15;8.50;;;6.50;93.00;;;;;;4975526;28;20110;-38
2021/04/24 00:37:16;;;;;;;17.83;9.68;;;6.50;93.00;;;;;;4968885;28;20022;-38
2021/04/24 00:39:41;;;;;;;11.85;7.80;;;6.50;93.10;;;;;;4977812;28;20034;-38
2021/04/24 00:42:07;;;;;;;15.82;8.40;;;6.40;93.00;;;;;;4971443;28;20123;-39
2021/04/24 00:44:33;;;;;;;16.58;9.40;;;6.40;93.00;;;;;;4975371;28;20072;-38
2021/04/24 00:46:58;;;;;;;22.88;9.73;;;6.40;93.10;;;;;;4972732;28;20023;-38
2021/04/24 00:49:24;;;;;;;12.82;8.25;;;6.40;93.10;;;;;;4973276;28;20780;-39
2021/04/24 00:51:49;;;;;;;11.25;8.18;;;6.40;93.20;;;;;;4975576;28;20069;-35
2021/04/24 00:54:15;;;;;;;13.45;8.45;;;6.40;93.20;;;;;;4969827;28;20101;-37
2021/04/24 00:56:42;;;;;;;13.27;8.52;;;6.30;93.10;;;;;;4978788;28;20125;-38
2021/04/24 00:59:07;;;;;;;12.77;8.65;;;6.30;93.20;;;;;;4969378;28;20030;-38
2021/04/24 01:01:33;;;;;;;13.43;8.20;;;6.30;93.20;;;;;;4978568;28;20336;-35
2021/04/24 01:03:59;;;;;;;20.05;10.15;;;6.30;93.20;;;;;;4972054;28;20050;-38
2021/04/24 01:06:25;;;;;;;13.07;7.65;;;6.30;93.20;;;;;;4976063;28;20717;-37
2021/04/24 01:08:50;;;;;;;14.50;8.23;;;6.30;93.20;;;;;;4987271;28;20724;-38
2021/04/24 01:11:16;;;;;;;11.90;8.10;;;6.20;93.30;;;;;;4975340;28;20041;-38
2021/04/24 01:13:42;;;;;;;18.35;9.05;;;6.20;93.30;;;;;;4987873;28;20030;-38
2021/04/24 01:16:07;;;;;;;16.42;8.98;;;6.20;93.30;;;;;;4974992;28;20524;-38
2021/04/24 01:18:33;;;;;;;16.05;8.25;;;6.20;93.40;;;;;;4986524;28;20285;-37
2021/04/24 01:21:01;;;;;;;12.52;7.68;;;6.20;93.40;;;;;;4978106;28;20478;-38
2021/04/24 01:23:27;;;;;;;11.68;7.13;;;6.10;93.30;;;;;;4983808;28;20038;-38
2021/04/24 01:25:53;;;;;;;12.68;7.60;;;6.10;93.40;;;;;;4980355;28;20026;-36
2021/04/24 01:28:19;;;;;;;11.45;8.07;;;6.10;93.40;;;;;;4981797;28;20045;-39
2021/04/24 01:30:46;;;;;;;13.05;8.32;;;6.10;93.50;;;;;;4982966;28;20038;-39
2021/04/24 01:33:13;;;;;;;17.15;9.25;;;6.10;93.50;;;;;;4979798;28;20121;-36
2021/04/24 01:35:42;;;;;;;14.48;8.70;;;6.10;93.60;;;;;;4983979;28;20580;-38
2021/04/24 01:38:08;;;;;;;13.00;8.85;;;6.00;93.90;;;;;;4977985;28;20033;-38
2021/04/24 01:40:34;;;;;;;14.63;8.55;;;6.00;93.70;;;;;;4985437;28;20014;-38
2021/04/24 01:43:01;;;;;;;12.40;7.72;;;6.00;93.70;;;;;;4975354;28;20034;-33
2021/04/24 01:45:27;;;;;;;13.50;8.30;;;6.00;93.70;;;;;;4985478;28;20049;-38
2021/04/24 01:47:54;;;;;;;19.20;10.38;;;6.00;93.70;;;;;;4967496;28;20061;-38
2021/04/24 01:50:31;;;;;;;14.65;8.80;;;5.90;93.80;;;;;;4967373;28;20030;-37
2021/04/24 01:52:58;;;;;;;14.27;9.10;;;5.90;93.80;;;;;;4975792;28;20474;-36
2021/04/24 01:55:30;;;;;;;18.00;8.90;;;5.90;93.80;;;;;;4986968;28;20287;-37
2021/04/24 01:57:57;;;;;;;14.17;8.83;;;5.90;93.90;;;;;;4973759;28;20673;-37
2021/04/24 02:00:30;;;;;;;13.82;8.40;;;5.90;94.00;;;;;;4986210;28;20288;-38
2021/04/24 02:02:57;;;;;;;;;;;5.90;94.00;;;;;;4975126;28;20062;-38
2021/04/24 02:05:22;;;;;;;12.35;7.72;;;5.90;94.00;;;;;;4971311;28;19926;-35
2021/04/24 02:07:59;;;;;;;17.77;8.30;;;5.80;93.90;;;;;;4971435;28;20018;-35
2021/04/24 02:10:27;;;;;;;14.75;8.13;;;5.80;94.00;;;;;;4966165;28;20109;-37
2021/04/24 02:12:54;;;;;;;17.58;9.57;;;5.70;93.90;;;;;;4976805;28;20022;-37
2021/04/24 02:15:20;;;;;;;13.35;8.32;;;5.70;94.10;;;;;;4969151;28;20030;-37
2021/04/24 02:17:46;;;;;;;15.27;8.88;;;5.70;94.20;;;;;;4974406;28;20014;-38
2021/04/24 02:20:12;;;;;;;12.27;7.57;;;5.70;94.20;;;;;;4971246;28;20045;-35
2021/04/24 02:22:37;;;;;;;14.25;7.88;;;5.70;94.20;;;;;;4972025;28;20030;-38
2021/04/24 02:25:04;;;;;;;13.07;7.97;;;5.70;94.20;;;;;;4972518;28;20049;-38
2021/04/24 02:27:31;;;;;;;14.82;8.23;;;5.70;94.20;;;;;;4969593;28;20070;-39
2021/04/24 02:29:56;;;;;;;12.93;7.82;;;5.70;94.20;;;;;;4975976;28;20046;-37
2021/04/24 02:32:31;;;;;;;11.80;7.45;;;5.70;94.20;;;;;;4967969;28;20485;-38
2021/04/24 02:35:01;;;;;;;14.55;8.43;;;5.60;94.20;;;;;;4966708;28;20015;-35
2021/04/24 02:37:27;;;;;;;12.57;8.27;;;5.70;94.30;;;;;;4968952;28;20035;-38
2021/04/24 02:39:55;;;;;;;12.10;7.30;;;5.70;94.30;;;;;;4974527;28;20088;-37
2021/04/24 02:42:24;;;;;;;16.20;8.82;;;5.60;94.30;;;;;;4985014;28;20109;-34
2021/04/24 02:44:51;;;;;;;14.27;8.40;;;5.60;94.30;;;;;;4966162;28;20035;-39
2021/04/24 02:47:19;;;;;;;14.05;9.50;;;5.60;94.40;;;;;;4966426;28;20038;-39
2021/04/24 02:49:48;;;;;;;15.48;8.25;;;5.60;94.50;;;;;;4978174;28;20061;-39
2021/04/24 02:52:22;;;;;;;14.65;8.48;;;5.60;94.50;;;;;;4966330;28;20041;-36
2021/04/24 02:54:48;;;;;;;11.65;7.57;;;5.60;94.60;;;;;;4978188;28;20092;-39
2021/04/24 02:57:13;;;;;;;12.90;7.70;;;5.60;94.50;;;;;;4966592;28;20098;-39
2021/04/24 02:59:39;;;;;;;12.55;8.65;;;5.50;94.50;;;;;;4977721;28;20053;-36
2021/04/24 03:02:04;;;;;;;12.63;8.50;;;5.50;94.60;;;;;;4966526;28;20095;-39
2021/04/24 03:04:30;;;;;;;13.23;7.75;;;5.50;94.70;;;;;;4967759;28;20023;-38
2021/04/24 03:06:55;;;;;;;12.80;8.30;;;5.50;94.70;;;;;;4965689;28;20058;-39
2021/04/24 03:09:21;;;;;;;13.05;8.30;;;5.50;94.70;;;;;;4973488;28;20416;-37
2021/04/24 03:11:47;;;;;;;16.02;9.25;;;5.50;94.80;;;;;;4979351;28;20030;-39
2021/04/24 03:14:12;;;;;;;11.15;7.35;;;5.40;94.90;;;;;;4980608;28;20162;-39
2021/04/24 03:16:39;;;;;;;15.27;9.23;;;5.40;95.00;;;;;;4977809;28;20052;-39
2021/04/24 03:19:07;;;;;;;11.57;7.78;;;5.40;95.00;;;;;;4983205;28;20390;-35
2021/04/24 03:21:32;;;;;;;13.70;8.10;;;5.40;95.00;;;;;;4975112;28;20057;-39
2021/04/24 03:24:01;;;;;;;13.95;8.00;;;5.40;95.00;;;;;;4984305;28;20055;-39
2021/04/24 03:26:26;;;;;;;10.98;7.68;;;5.40;95.10;;;;;;4974167;28;20053;-36
2021/04/24 03:28:52;;;;;;;13.02;7.78;;;5.40;95.10;;;;;;4983712;28;20098;-36
2021/04/24 03:31:18;;;;;;;13.75;8.00;;;5.40;95.10;;;;;;4974244;28;20061;-39
2021/04/24 03:33:44;;;;;;;10.18;7.00;;;5.40;95.20;;;;;;4985005;28;20022;-38
2021/04/24 03:36:10;;;;;;;11.77;7.50;;;5.40;95.40;;;;;;4971862;28;20031;-37
2021/04/24 03:38:37;;;;;;;16.40;8.63;;;5.40;95.10;;;;;;4984617;28;20042;-37
2021/04/24 03:41:04;;;;;;;15.43;9.02;;;5.40;95.20;;;;;;4972657;28;20030;-39
2021/04/24 03:43:30;;;;;;;13.88;7.72;;;5.40;95.30;;;;;;4964878;28;20111;-36
2021/04/24 03:45:56;;;;;;;14.18;7.60;;;5.40;95.30;;;;;;4975155;28;20122;-39
2021/04/24 03:48:21;;;;;;;10.50;7.70;;;5.40;95.20;;;;;;4967975;28;20106;-38
2021/04/24 03:50:47;;;;;;;12.45;7.43;;;5.40;95.20;;;;;;4971385;28;20042;-39
2021/04/24 03:53:12;;;;;;;11.85;7.65;;;5.30;95.20;;;;;;4971065;28;20050;-38
2021/04/24 03:55:38;;;;;;;15.75;7.93;;;5.30;95.20;;;;;;4969613;28;20752;-39
2021/04/24 03:58:04;;;;;;;11.30;7.00;;;5.30;95.20;;;;;;4972869;28;20041;-39
2021/04/24 04:00:31;;;;;;;11.73;7.45;;;5.30;95.20;;;;;;4967573;28;20499;-36
2021/04/24 04:03:08;;;;;;;14.05;7.22;;;5.30;95.20;;;;;;4974371;28;20042;-37
2021/04/24 04:05:39;;;;;;;10.57;6.97;;;5.20;95.20;;;;;;4978447;28;20050;-38
2021/04/24 04:08:09;;;;;;;9.60;6.95;;;5.20;95.20;;;;;;4965507;28;20066;-36
2021/04/24 04:10:36;;;;;;;13.27;7.47;;;5.10;95.20;;;;;;4967348;28;20126;-35
2021/04/24 04:13:03;;;;;;;11.48;6.88;;;5.10;95.20;;;;;;4973783;28;20043;-38
2021/04/24 04:15:30;;;;;;;10.82;7.38;;;5.10;95.20;;;;;;4983102;28;20125;-34
2021/04/24 04:18:15;;;;;;;10.30;7.22;;;5.10;95.20;;;;;;4973596;28;20052;-38
2021/04/24 04:20:47;;;;;;;10.23;6.40;;;5.10;95.30;;;;;;4983440;28;20129;-38
2021/04/24 04:23:12;;;;;;;12.15;7.32;;;5.00;95.20;;;;;;4976719;28;20048;-38
2021/04/24 04:25:39;;;;;;;11.70;7.63;;;5.00;95.30;;;;;;4987748;28;20058;-37
2021/04/24 04:28:05;;;;;;;14.32;8.45;;;5.00;95.30;;;;;;4975587;28;20038;-38
2021/04/24 04:30:34;;;;;;;16.95;8.25;;;5.00;95.60;;;;;;4988521;28;20149;-38
2021/04/24 04:33:00;;;;;;;12.50;8.27;;;5.10;95.60;;;;;;4975900;28;20026;-36
2021/04/24 04:35:26;;;;;;;14.38;8.07;;;5.10;96.10;;;;;;4988042;28;20033;-38
2021/04/24 04:37:53;;;;;;;15.88;7.97;;;5.10;95.80;;;;;;4976060;28;20043;-37
2021/04/24 04:40:19;;;;;;;12.90;8.45;;;5.10;95.90;;;;;;4987961;28;20026;-38
2021/04/24 04:42:48;;;;;;;14.02;7.95;;;5.10;96.00;;;;;;4978706;28;20122;-37
2021/04/24 04:45:16;;;;;;;13.20;7.38;;;5.10;96.20;;;;;;4985563;28;20141;-38
2021/04/24 04:47:42;;;;;;;13.55;7.60;;;5.10;96.20;;;;;;4981009;28;20035;-37
2021/04/24 04:50:14;;;;;;;14.98;9.02;;;5.20;96.30;;;;;;4982984;28;20027;-37
2021/04/24 04:52:40;;;;;;;17.05;9.25;;;5.20;96.90;;;;;;4981787;28;20500;-38
2021/04/24 04:55:07;;;;;;;12.55;8.60;;;5.20;96.70;;;;;;4981443;28;20197;-38
2021/04/24 04:57:33;;;;;;;15.77;8.07;;;5.30;96.60;;;;;;4984557;28;20019;-35
2021/04/24 05:00:02;;;;;;;15.32;7.82;;;5.30;96.80;;;;;;4978600;28;20030;-39
2021/04/24 05:02:27;;;;;;;15.43;8.18;;;5.30;96.80;;;;;;4986133;28;20019;-39
2021/04/24 05:04:53;;;;;;;14.13;7.82;;;5.30;96.70;;;;;;4977335;28;20046;-38
2021/04/24 05:07:18;;;;;;;13.98;7.40;;;5.40;96.90;;;;;;4986088;28;20142;-39
2021/04/24 05:09:44;;;;;;;13.88;7.15;;;5.40;96.90;;;;;;4976883;28;20026;-39
2021/04/24 05:12:09;;;;;;;12.30;7.45;;;5.40;96.90;;;;;;4988077;28;20038;-39
2021/04/24 05:14:36;;;;;;;16.60;7.90;;;5.50;96.70;;;;;;4974767;28;20026;-36
2021/04/24 05:17:03;;;;;;;14.15;7.32;;;5.50;96.90;;;;;;4987720;28;20039;-39
2021/04/24 05:19:29;;;;;;;13.25;7.82;;;5.60;96.80;;;;;;4975444;28;20027;-39
2021/04/24 05:21:54;;;;;;;12.20;6.90;;;5.60;96.80;;;;;;4987032;28;20026;-37
2021/04/24 05:24:20;;;;;;;12.82;7.28;;;5.70;96.70;;;;;;4976469;28;20146;-37
2021/04/24 05:26:45;;;;;;;10.77;6.47;;;5.70;96.80;;;;;;4985726;28;20049;-36
2021/04/24 05:29:11;;;;;;;14.02;6.88;;;5.70;96.80;;;;;;4979207;28;20042;-38
2021/04/24 05:31:36;;;;;;;12.05;6.63;;;5.70;96.70;;;;;;4983291;28;20029;-37
2021/04/24 05:34:03;;;;;;;11.05;6.68;;;5.80;96.60;;;;;;4980492;28;20458;-40
2021/04/24 05:36:29;;;;;;;15.05;8.00;;;5.80;96.60;;;;;;4980485;28;20026;-39
2021/04/24 05:38:55;;;;;;;12.55;7.38;;;5.90;96.60;;;;;;4983656;28;20076;-38
2021/04/24 05:41:22;;;;;;;12.88;7.07;;;5.90;96.60;;;;;;4978079;28;20049;-39
2021/04/24 05:43:49;;;;;;;13.07;7.55;;;6.00;96.50;;;;;;4985345;28;20014;-36
2021/04/24 05:46:15;;;;;;;10.75;6.72;;;6.00;96.40;;;;;;4976522;28;20038;-38
2021/04/24 05:48:41;;;;;;;9.30;5.88;;;6.10;96.30;;;;;;4985451;28;20030;-34
2021/04/24 05:51:07;;;;;;;11.70;5.95;;;6.20;96.20;;;;;;4975881;28;20026;-40
2021/04/24 05:53:32;;;;;;;14.10;6.50;;;6.30;96.10;;;;;;4986988;28;20038;-37
2021/04/24 05:55:58;;;;;;;12.27;6.80;;;6.30;96.00;;;;;;4974471;28;20196;-40
2021/04/24 05:58:33;;;;;;;13.02;6.85;;;6.40;95.90;;;;;;4987140;28;20053;-39
2021/04/24 06:00:59;;;;;;;13.93;6.93;;;6.50;95.90;;;;;;4974564;28;20205;-40
2021/04/24 06:03:25;;;;;;;12.77;7.00;;;6.60;95.80;;;;;;4986161;28;20132;-38
2021/04/24 06:05:50;;;;;;;11.98;6.82;;;6.60;95.80;;;;;;4981791;28;20065;-36
2021/04/24 06:08:16;;;;;;;10.30;5.82;;;6.70;95.70;;;;;;4968506;28;20771;-38
2021/04/24 06:10:44;;;;;;;10.65;6.88;;;6.70;95.60;;;;;;4975720;28;20041;-37
2021/04/24 06:13:10;;;;;;;11.88;6.18;;;6.80;95.90;;;;;;4969946;28;20049;-37
2021/04/24 06:15:35;;;;;;;10.65;6.90;;;6.80;95.60;;;;;;4973954;28;20014;-38
2021/04/24 06:18:01;;;;;;;9.50;6.32;;;6.90;95.70;;;;;;4971532;28;20157;-40
2021/04/24 06:20:27;;;;;;;9.27;6.32;;;6.90;95.50;;;;;;4970860;28;20014;-38
2021/04/24 06:22:52;;;;;;;11.18;6.00;;;6.90;95.50;;;;;;4974617;28;20392;-38
2021/04/24 06:25:19;;;;;;;10.05;6.40;;;6.80;95.50;;;;;;4968836;28;20423;-35
2021/04/24 06:27:45;;;;;;;14.18;6.50;;;6.90;95.50;;;;;;4976963;28;20034;-37
2021/04/24 06:30:13;;;;;;;8.85;5.80;;;6.90;95.50;;;;;;4967555;28;20399;-40
2021/04/24 06:32:40;;;;;;;11.40;7.43;;;7.00;95.50;;;;;;4976993;28;20359;-37
2021/04/24 06:35:07;;;;;;;10.95;7.57;;;7.00;95.50;;;;;;4968020;28;20041;-38
2021/04/24 06:37:33;;;;;;;11.27;5.97;;;7.00;95.80;;;;;;4977256;28;20050;-38
2021/04/24 06:40:02;;;;;;;11.70;7.38;;;7.00;95.50;;;;;;4966668;28;20057;-41
2021/04/24 06:42:30;;;;;;;12.65;6.70;;;7.10;95.50;;;;;;4971156;28;20026;-36
2021/04/24 06:44:55;;;;;;;14.07;7.03;;;7.10;95.50;;;;;;4985047;28;20196;-36
2021/04/24 06:47:21;;;;;;;16.30;7.10;;;7.20;95.50;;;;;;4981476;28;20125;-37
2021/04/24 06:49:46;;;;;;;11.07;6.60;;;7.30;95.40;;;;;;4966544;28;20018;-38
2021/04/24 06:52:15;;;;;;;8.65;6.18;;;7.40;95.30;;;;;;4975126;28;20052;-36
2021/04/24 06:54:41;;;;;;;12.65;6.80;;;7.40;95.20;;;;;;4965240;28;20094;-37
2021/04/24 06:57:06;;;;;;;11.07;6.93;;;7.50;95.10;;;;;;4973004;28;20034;-39
2021/04/24 06:59:32;;;;;;;13.35;6.95;;;7.60;95.00;;;;;;4969192;28;20031;-39
2021/04/24 07:01:58;;;;;;;10.25;6.40;;;7.60;94.90;;;;;;4970780;28;20033;-39
2021/04/24 07:04:23;;;;;;;10.80;6.13;;;7.70;94.80;;;;;;4975657;28;20057;-39
2021/04/24 07:06:49;;;;;;;8.45;5.53;;;7.70;94.60;;;;;;4981291;28;20208;-39
2021/04/24 07:09:14;;;;;;;8.52;5.47;;;7.80;94.40;;;;;;4975747;28;20153;-38
2021/04/24 07:11:40;;;;;;;8.40;6.15;;;7.80;94.20;;;;;;4983396;28;20035;-39
2021/04/24 07:14:05;;;;;;;9.52;5.07;;;7.90;94.20;;;;;;4973095;28;20026;-40
2021/04/24 07:16:31;;;;;;;9.82;4.70;;;8.00;93.90;;;;;;4982974;28;20080;-39
2021/04/24 07:18:59;;;;;;;5.75;4.50;;;8.00;93.30;;;;;;4974818;28;20133;-37
2021/04/24 07:21:25;;;;;;;10.45;4.95;;;8.10;92.80;;;;;;4984252;28;20026;-39
2021/04/24 07:23:51;;;;;;;5.70;3.53;;;8.10;92.80;;;;;;4979713;28;20347;-39
2021/04/24 07:26:17;;;;;;;6.97;3.00;;;8.20;92.30;;;;;;4982288;28;20558;-39
2021/04/24 07:28:43;;;;;;;5.57;3.60;;;8.20;90.90;;;;;;4971655;28;20387;-39
2021/04/24 07:31:09;;;;;;;5.65;2.70;;;8.30;90.20;;;;;;4983706;28;20030;-39
2021/04/24 07:33:36;;;;;;;6.28;3.03;;;8.40;89.10;;;;;;4973484;28;20037;-37
2021/04/24 07:36:04;;;;;;;4.55;2.28;;;8.50;87.80;;;;;;4982775;28;20112;-37
2021/04/24 07:38:30;;;;;;;5.82;2.70;;;8.50;86.30;;;;;;4975971;28;20030;-40
2021/04/24 07:40:55;;;;;;;8.48;2.70;;;8.60;85.70;;;;;;4980312;28;20168;-40
2021/04/24 07:43:21;;;;;;;4.22;2.35;;;8.60;84.90;;;;;;4978734;28;20030;-39
2021/04/24 07:45:46;;;;;;;3.90;2.25;;;8.60;83.10;;;;;;4977817;28;20058;-37
2021/04/24 07:48:12;;;;;;;5.32;2.75;;;8.60;82.20;;;;;;4981317;28;20666;-38
2021/04/24 07:50:41;;;;;;;5.53;2.90;;;8.60;82.70;;;;;;4975121;28;20069;-38
2021/04/24 07:53:06;;;;;;;4.22;2.88;;;8.70;83.80;;;;;;4983478;28;20022;-37
2021/04/24 07:55:32;;;;;;;5.78;2.92;;;8.80;84.50;;;;;;4972682;28;20030;-40
2021/04/24 07:57:58;;;;;;;4.90;3.10;;;8.80;83.90;;;;;;4986165;28;20466;-39
2021/04/24 08:00:24;;;;;;;5.80;3.00;;;8.90;83.00;;;;;;4980342;28;20053;-36
2021/04/24 08:02:50;;;;;;;4.85;2.50;;;8.90;83.40;;;;;;4969315;28;20065;-39
2021/04/24 08:05:17;;;;;;;3.80;2.40;;;9.00;82.80;;;;;;4983196;28;20476;-33
2021/04/24 08:07:46;;;;;;;4.30;2.13;;;9.10;80.80;;;;;;4988481;28;20026;-37
2021/04/24 08:10:13;;;;;;;4.00;2.10;;;9.10;80.10;;;;;;4975882;28;20122;-37
2021/04/24 08:12:38;;;;;;;6.65;2.50;;;9.10;79.80;;;;;;4983032;28;20474;-39
2021/04/24 08:15:06;;;;;;;4.80;3.10;;;9.20;80.10;;;;;;4981024;28;20081;-38
2021/04/24 08:17:32;;;;;;;5.30;3.08;;;9.30;80.50;;;;;;4984188;28;20505;-39
2021/04/24 08:19:58;;;;;;;5.43;2.83;;;9.30;80.60;;;;;;4980106;28;20018;-40
2021/04/24 08:22:24;;;;;;;9.13;2.83;;;9.40;80.00;;;;;;4986685;28;20482;-36
2021/04/24 08:24:49;;;;;;;4.78;3.15;;;9.50;80.10;;;;;;4983511;28;20039;-39
2021/04/24 08:27:15;;;;;;;3.33;2.58;;;9.60;78.70;;;;;;4985209;28;20018;-39
2021/04/24 08:29:40;;;;;;;5.40;3.08;;;9.60;78.00;;;;;;4983152;28;20114;-39
2021/04/24 08:32:08;;;;;;;3.13;2.58;;;9.70;78.00;;;;;;4982115;28;20137;-40
2021/04/24 08:34:33;;;;;;;5.35;2.97;;;9.70;78.60;;;;;;4984919;28;20330;-42
2021/04/24 08:36:59;;;;;;;5.90;2.53;;;9.80;77.20;;;;;;4981680;28;20022;-39
2021/04/24 08:39:28;;;;;;;3.95;2.55;;;9.80;76.90;;;;;;4986137;28;20117;-39
2021/04/24 08:41:54;;;;;;;4.53;2.30;;;9.80;76.30;;;;;;4981766;28;20031;-40
2021/04/24 08:44:19;;;;;;;4.38;2.45;;;9.80;76.40;;;;;;4986380;28;20092;-38
2021/04/24 08:46:50;;;;;;;3.10;2.17;;;9.80;76.60;;;;;;4975584;28;20038;-40
2021/04/24 08:49:21;;;;;;;2.75;1.95;;;9.90;75.90;;;;;;4988325;28;20068;-40
2021/04/24 08:51:51;;;;;;;3.97;2.80;;;9.90;75.60;;;;;;4974206;28;20033;-39
2021/04/24 08:54:17;;;;;;;3.55;2.00;;;9.90;74.30;;;;;;4988203;28;20030;-39
2021/04/24 08:56:44;;;;;;;2.55;2.05;;;10.00;74.10;;;;;;4978671;28;20095;-38
2021/04/24 08:59:09;;;;;;;2.35;2.00;;;10.00;73.90;;;;;;4984295;28;20033;-37
2021/04/24 09:01:35;;;;;;;3.25;2.20;;;10.00;73.70;;;;;;4979069;28;20030;-37
2021/04/24 09:04:01;;;;;;;4.38;2.90;;;10.00;73.50;;;;;;4975858;28;20034;-39
2021/04/24 09:06:28;;;;;;;4.82;2.63;;;10.00;72.70;;;;;;4974494;28;20128;-39
2021/04/24 09:08:59;;;;;;;5.50;3.17;;;10.00;72.70;;;;;;4970112;28;20130;-37
2021/04/24 09:11:28;;;;;;;6.18;3.38;;;10.00;73.00;;;;;;4972972;28;20014;-38
2021/04/24 09:14:04;;;;;;;6.18;3.20;;;10.10;74.30;;;;;;4972302;28;20019;-35
2021/04/24 09:16:30;;;;;;;5.07;2.65;;;10.10;74.00;;;;;;4981709;28;20202;-38
2021/04/24 09:18:57;;;;;;;6.47;3.28;;;10.20;73.90;;;;;;4973978;28;20122;-38
2021/04/24 09:21:25;;;;;;;5.20;3.38;;;10.20;73.00;;;;;;4970922;28;20027;-39
2021/04/24 09:23:51;;;;;;;3.05;2.30;;;10.30;72.50;;;;;;4985292;28;20026;-36
2021/04/24 09:26:20;;;;;;;5.22;3.28;;;10.30;72.00;;;;;;4982880;28;20037;-39
2021/04/24 09:28:50;;;;;;;6.72;2.97;;;10.30;72.60;;;;;;4967200;28;20086;-37
2021/04/24 09:31:24;;;;;;;3.42;2.10;;;10.40;73.00;;;;;;4969862;28;20015;-38
2021/04/24 09:33:54;;;;;;;5.32;2.80;;;10.50;72.40;;;;;;4975391;28;20073;-38
2021/04/24 09:36:20;;;;;;;3.78;2.78;;;10.60;71.70;;;;;;4985218;28;20054;-37
2021/04/24 09:38:52;;;;;;;4.47;2.50;;;10.60;71.30;;;;;;4975671;28;20053;-39
2021/04/24 09:41:25;;;;;;;5.13;2.60;;;10.60;70.50;;;;;;4985561;28;20569;-38
2021/04/24 09:43:53;;;;;;;6.28;3.28;;;10.70;71.60;;;;;;4983452;28;20470;-39
2021/04/24 09:46:20;;;;;;;3.95;2.60;;;10.80;69.90;;;;;;4986241;28;20056;-39
2021/04/24 09:48:46;;;;;;;5.20;3.10;;;10.80;69.50;;;;;;4977163;28;20034;-38
2021/04/24 09:51:17;;;;;;;6.85;3.40;;;10.80;69.70;;;;;;4967600;28;20030;-39
2021/04/24 09:53:53;;;;;;;6.97;3.28;;;10.80;69.70;;;;;;4978818;28;20030;-39
2021/04/24 09:56:23;;;;;;;5.05;3.45;;;10.80;69.90;;;;;;4966292;28;20031;-38
2021/04/24 09:58:49;;;;;;;6.25;3.10;;;10.90;69.90;;;;;;4978884;28;20100;-38
2021/04/24 10:01:27;;;;;;;8.35;3.00;;;10.90;70.40;;;;;;4966828;28;20034;-38
2021/04/24 10:03:56;;;;;;;6.72;3.90;;;10.90;70.10;;;;;;4978933;28;20122;-40
2021/04/24 10:06:22;;;;;;;4.15;3.08;;;11.00;69.80;;;;;;4984323;28;20113;-39
2021/04/24 10:08:50;;;;;;;5.45;2.97;;;11.00;69.90;;;;;;4974474;28;20769;-39
2021/04/24 10:11:28;;;;;;;5.05;2.80;;;11.10;69.90;;;;;;4984262;28;20498;-39
2021/04/24 10:13:54;;;;;;;5.47;2.60;;;11.10;70.10;;;;;;4975851;28;20802;-37
2021/04/24 10:16:42;;;;;;;2.85;2.45;;;11.10;69.10;;;;;;4983395;28;20076;-39
2021/04/24 10:19:10;;;;;;;4.45;2.88;;;11.20;66.50;;;;;;4976994;28;20132;-37
2021/04/24 10:21:36;;;;;;;4.30;3.03;;;11.30;66.70;;;;;;4982080;28;20023;-35
2021/04/24 10:24:04;;;;;;;4.22;2.90;;;11.40;67.20;;;;;;4980052;28;20026;-38
2021/04/24 10:26:30;;;;;;;4.40;2.95;;;11.50;66.90;;;;;;4969562;28;20038;-38
2021/04/24 10:28:58;;;;;;;4.50;3.10;;;11.60;65.70;;;;;;4971994;28;20573;-39
2021/04/24 10:31:24;;;;;;;3.88;2.83;;;11.70;63.40;;;;;;4971384;28;20110;-38
2021/04/24 10:33:50;;;;;;;3.20;2.50;;;11.70;62.70;;;;;;4969395;28;20020;-37
2021/04/24 10:36:17;;;;;;;5.72;3.22;;;11.80;62.10;;;;;;4967961;28;20034;-39
2021/04/24 10:38:50;;;;;;;3.13;2.60;;;11.90;62.00;;;;;;4980697;28;20450;-33
2021/04/24 10:41:38;;;;;;;8.05;2.85;;;11.90;61.40;;;;;;4980656;28;20121;-38
2021/04/24 10:44:07;;;;;;;4.15;2.25;;;12.00;60.80;;;;;;4977859;28;20419;-35
2021/04/24 10:46:35;;;;;;;4.93;2.30;;;12.00;60.00;;;;;;4975053;28;20034;-38
2021/04/24 10:49:24;;;;;;;3.80;2.70;;;12.10;58.90;;;;;;4966919;28;20103;-37
2021/04/24 10:52:02;;;;;;;4.55;2.80;;;12.10;59.50;;;;;;4976997;28;20085;-36
2021/04/24 10:54:30;;;;;;;5.82;3.53;;;12.20;59.40;;;;;;4980849;28;20475;-38
2021/04/24 10:56:58;;;;;;;4.03;2.78;;;12.20;59.80;;;;;;4974076;28;20039;-39
2021/04/24 10:59:29;;;;;;;5.07;2.90;;;12.30;59.40;;;;;;4967121;28;20042;-38
2021/04/24 11:02:08;;;;;;;4.80;2.97;;;12.40;59.60;;;;;;4976599;28;20023;-38
2021/04/24 11:04:50;;;;;;;8.68;4.68;;;12.50;59.80;;;;;;4968797;28;20031;-38
2021/04/24 11:07:20;;;;;;;11.52;4.00;;;12.60;58.10;;;;;;4972824;28;20549;-37
2021/04/24 11:10:11;;;;;;;5.43;3.22;;;12.80;57.40;;;;;;4966995;28;20023;-38
2021/04/24 11:12:45;;;;;;;3.97;3.58;;;12.90;57.30;;;;;;4972562;28;20483;-37
2021/04/24 11:15:13;;;;;;;6.55;3.83;;;13.00;57.50;;;;;;4966946;28;20146;-37
2021/04/24 11:17:40;;;;;;;7.28;4.00;;;13.10;58.00;;;;;;4973855;28;20461;-38
2021/04/24 11:20:09;;;;;;;8.85;3.67;;;13.20;58.70;;;;;;4966578;28;20114;-38
2021/04/24 11:22:40;;;;;;;9.40;4.30;;;13.30;59.20;;;;;;4975360;28;20047;-39
2021/04/24 11:25:33;;;;;;;5.78;3.92;;;13.40;59.90;;;;;;4966809;28;20066;-38
2021/04/24 11:28:08;;;;;;;4.20;3.47;;;13.50;59.10;;;;;;4963609;28;20066;-38
2021/04/24 11:30:59;;;;;;;6.35;4.00;;;13.60;57.50;;;;;;4969108;28;20068;-39
2021/04/24 11:33:34;;;;;;;4.57;3.92;;;13.70;57.80;;;;;;4977075;28;20366;-39
2021/04/24 11:36:26;;;;;;;5.28;4.13;;;13.80;58.10;;;;;;4980575;28;20047;-39
2021/04/24 11:38:59;;;;;;;6.70;4.18;;;13.90;57.50;;;;;;4978872;28;20451;-36
2021/04/24 11:41:32;;;;;;;7.25;3.60;;;13.90;56.10;;;;;;4977507;28;20030;-38
2021/04/24 11:44:27;;;;;;;7.78;3.83;;;13.90;55.80;;;;;;4980527;28;20026;-38
2021/04/24 11:46:54;;;;;;;5.13;3.83;;;13.90;54.70;;;;;;4950422;28;20146;-38
2021/04/24 11:49:22;;;;;;;8.80;4.10;;;14.00;55.00;;;;;;4981586;28;20026;-40
2021/04/24 11:51:57;;;;;;;5.38;3.63;;;14.00;55.40;;;;;;4979016;28;20081;-39
2021/04/24 11:54:30;;;;;;;7.40;4.07;;;14.10;55.60;;;;;;4981807;28;20030;-37
2021/04/24 11:56:58;;;;;;;10.35;5.80;;;14.10;56.20;;;;;;4980430;28;20026;-38
2021/04/24 11:59:30;;;;;;;7.63;4.63;;;14.20;57.00;;;;;;4970697;28;20031;-37
2021/04/24 12:02:02;;;;;;;5.85;4.05;;;14.20;57.90;;;;;;4969773;28;20572;-38
2021/04/24 12:04:28;;;;;;;8.82;4.68;;;14.10;57.80;;;;;;4972086;28;20037;-39
2021/04/24 12:07:05;;;;;;;6.30;4.07;;;14.20;57.30;;;;;;4981244;28;20050;-39
2021/04/24 12:09:46;;;;;;;7.47;4.25;;;14.20;57.20;;;;;;4976758;28;20057;-39
2021/04/24 12:12:13;;;;;;;5.40;4.10;;;14.20;57.70;;;;;;4980537;28;20030;-37
2021/04/24 12:14:38;;;;;;;8.02;4.43;;;14.30;58.10;;;;;;4976825;28;20466;-39
2021/04/24 12:17:12;;;;;;;6.90;4.30;;;14.30;58.60;;;;;;4981881;28;20037;-38
2021/04/24 12:19:40;;;;;;;6.63;4.43;;;14.40;57.60;;;;;;4975743;28;20042;-39
2021/04/24 12:22:07;;;;;;;8.18;4.53;;;14.40;57.70;;;;;;4982569;28;20465;-38
2021/04/24 12:24:34;;;;;;;8.68;4.63;;;14.30;57.90;;;;;;4973808;28;20058;-37
2021/04/24 12:27:27;;;;;;;5.80;4.22;;;14.30;57.70;;;;;;4983323;28;20105;-38
2021/04/24 12:29:54;;;;;;;6.32;3.97;;;14.20;58.60;;;;;;4964474;28;20041;-38
2021/04/24 12:32:23;;;;;;;7.95;4.45;;;14.30;59.30;;;;;;4967781;28;20137;-36
2021/04/24 12:34:49;;;;;;;9.60;4.68;;;14.40;59.50;;;;;;4973654;28;20105;-38
2021/04/24 12:37:22;;;;;;;8.45;5.22;;;14.50;59.20;;;;;;4982458;28;20046;-37
2021/04/24 12:40:02;;;;;;;10.98;5.07;;;14.60;58.60;;;;;;4973484;28;20022;-38
2021/04/24 12:42:27;;;;;;;7.97;4.97;;;14.50;59.10;;;;;;4983128;28;20022;-38
2021/04/24 12:44:53;;;;;;;8.48;4.35;;;14.40;59.20;;;;;;4976340;28;20018;-38
2021/04/24 12:47:19;;;;;;;7.72;4.40;;;14.40;59.50;;;;;;4988308;28;20030;-39
2021/04/24 12:49:45;;;;;;;6.75;4.40;;;14.50;59.90;;;;;;4975393;28;20022;-38
2021/04/24 12:52:10;;;;;;;9.00;4.45;;;14.50;59.60;;;;;;4987437;28;20130;-37